sensor_id;sensor_type;location;lat;lon;timestamp;P1;durP1;ratioP1;P2;durP2;ratioP2
55067;SDS011;40965;52.368;9.712;2024-01-06T00:00:30;27.27;;;13.85;;
55067;SDS011;40965;52.368;9.712;2024-01-06T00:02:58;22.00;;;12.35;;
55067;SDS011;40965;52.368;9.712;2024-01-06T00:05:24;24.90;;;14.63;;
55067;SDS011;40965;52.368;9.712;2024-01-06T00:07:51;25.05;;;14.63;;
55067;SDS011;40965;52.368;9.712;2024-01-06T00:10:22;27.70;;;15.20;;
55067;SDS011;40965;52.368;9.712;2024-01-06T00:12:49;21.10;;;13.70;;
55067;SDS011;40965;52.368;9.712;2024-01-06T00:15:15;22.58;;;12.90;;
55067;SDS011;40965;52.368;9.712;2024-01-06T00:17:42;20.40;;;12.70;;
55067;SDS011;40965;52.368;9.712;2024-01-06T00:20:08;21.40;;;12.57;;
55067;SDS011;40965;52.368;9.712;2024-01-06T00:22:35;24.55;;;14.40;;
55067;SDS011;40965;52.368;9.712;2024-01-06T00:25:01;20.48;;;12.75;;
55067;SDS011;40965;52.368;9.712;2024-01-06T00:27:28;20.77;;;13.05;;
55067;SDS011;40965;52.368;9.712;2024-01-06T00:29:54;21.65;;;12.38;;
55067;SDS011;40965;52.368;9.712;2024-01-06T00:32:21;24.38;;;14.60;;
55067;SDS011;40965;52.368;9.712;2024-01-06T00:34:47;23.10;;;13.07;;
55067;SDS011;40965;52.368;9.712;2024-01-06T00:37:15;23.17;;;13.02;;
55067;SDS011;40965;52.368;9.712;2024-01-06T00:39:41;22.67;;;12.68;;
55067;SDS011;40965;52.368;9.712;2024-01-06T00:42:08;20.50;;;12.25;;
55067;SDS011;40965;52.368;9.712;2024-01-06T00:44:35;20.50;;;11.43;;
55067;SDS011;40965;52.368;9.712;2024-01-06T00:47:04;33.30;;;13.88;;
55067;SDS011;40965;52.368;9.712;2024-01-06T00:49:31;20.23;;;11.65;;
55067;SDS011;40965;52.368;9.712;2024-01-06T00:51:57;26.35;;;13.10;;
55067;SDS011;40965;52.368;9.712;2024-01-06T00:54:24;19.10;;;10.82;;
55067;SDS011;40965;52.368;9.712;2024-01-06T00:56:50;25.23;;;13.13;;
55067;SDS011;40965;52.368;9.712;2024-01-06T00:59:17;22.70;;;12.35;;
55067;SDS011;40965;52.368;9.712;2024-01-06T01:01:45;20.92;;;11.88;;
55067;SDS011;40965;52.368;9.712;2024-01-06T01:04:11;22.92;;;12.52;;
55067;SDS011;40965;52.368;9.712;2024-01-06T01:06:38;22.10;;;12.68;;
55067;SDS011;40965;52.368;9.712;2024-01-06T01:09:04;22.10;;;12.88;;
55067;SDS011;40965;52.368;9.712;2024-01-06T01:11:33;17.77;;;11.40;;
55067;SDS011;40965;52.368;9.712;2024-01-06T01:14:00;20.20;;;11.90;;
55067;SDS011;40965;52.368;9.712;2024-01-06T01:16:29;23.77;;;12.65;;
55067;SDS011;40965;52.368;9.712;2024-01-06T01:18:57;20.42;;;12.15;;
55067;SDS011;40965;52.368;9.712;2024-01-06T01:21:24;22.77;;;13.52;;
55067;SDS011;40965;52.368;9.712;2024-01-06T01:23:50;19.10;;;11.88;;
55067;SDS011;40965;52.368;9.712;2024-01-06T01:26:17;20.42;;;11.27;;
55067;SDS011;40965;52.368;9.712;2024-01-06T01:28:43;20.40;;;12.48;;
55067;SDS011;40965;52.368;9.712;2024-01-06T01:31:10;18.92;;;11.88;;
55067;SDS011;40965;52.368;9.712;2024-01-06T01:33:38;23.77;;;13.07;;
55067;SDS011;40965;52.368;9.712;2024-01-06T01:36:04;19.65;;;12.48;;
55067;SDS011;40965;52.368;9.712;2024-01-06T01:38:34;20.77;;;12.35;;
55067;SDS011;40965;52.368;9.712;2024-01-06T01:41:00;19.58;;;12.38;;
55067;SDS011;40965;52.368;9.712;2024-01-06T01:43:27;20.77;;;11.57;;
55067;SDS011;40965;52.368;9.712;2024-01-06T01:45:54;21.27;;;12.23;;
55067;SDS011;40965;52.368;9.712;2024-01-06T01:48:22;21.00;;;11.88;;
55067;SDS011;40965;52.368;9.712;2024-01-06T01:50:51;19.15;;;12.05;;
55067;SDS011;40965;52.368;9.712;2024-01-06T01:53:19;19.50;;;11.73;;
55067;SDS011;40965;52.368;9.712;2024-01-06T01:55:47;19.35;;;12.18;;
55067;SDS011;40965;52.368;9.712;2024-01-06T01:58:14;22.17;;;12.82;;
55067;SDS011;40965;52.368;9.712;2024-01-06T02:00:42;24.17;;;12.50;;
55067;SDS011;40965;52.368;9.712;2024-01-06T02:03:09;22.23;;;11.40;;
55067;SDS011;40965;52.368;9.712;2024-01-06T02:05:38;19.60;;;11.98;;
55067;SDS011;40965;52.368;9.712;2024-01-06T02:08:07;20.75;;;12.18;;
55067;SDS011;40965;52.368;9.712;2024-01-06T02:10:34;21.55;;;11.77;;
55067;SDS011;40965;52.368;9.712;2024-01-06T02:13:07;17.85;;;11.75;;
55067;SDS011;40965;52.368;9.712;2024-01-06T02:15:36;23.08;;;13.25;;
55067;SDS011;40965;52.368;9.712;2024-01-06T02:18:03;21.67;;;11.80;;
55067;SDS011;40965;52.368;9.712;2024-01-06T02:20:30;20.85;;;12.18;;
55067;SDS011;40965;52.368;9.712;2024-01-06T02:22:57;20.88;;;12.82;;
55067;SDS011;40965;52.368;9.712;2024-01-06T02:25:27;21.08;;;11.50;;
55067;SDS011;40965;52.368;9.712;2024-01-06T02:27:54;20.92;;;12.35;;
55067;SDS011;40965;52.368;9.712;2024-01-06T02:30:21;24.05;;;11.88;;
55067;SDS011;40965;52.368;9.712;2024-01-06T02:32:48;19.63;;;11.88;;
55067;SDS011;40965;52.368;9.712;2024-01-06T02:35:17;22.38;;;11.75;;
55067;SDS011;40965;52.368;9.712;2024-01-06T02:37:43;21.67;;;12.20;;
55067;SDS011;40965;52.368;9.712;2024-01-06T02:40:10;21.73;;;12.35;;
55067;SDS011;40965;52.368;9.712;2024-01-06T02:42:38;16.67;;;10.70;;
55067;SDS011;40965;52.368;9.712;2024-01-06T02:45:04;24.23;;;12.30;;
55067;SDS011;40965;52.368;9.712;2024-01-06T02:47:33;19.83;;;11.07;;
55067;SDS011;40965;52.368;9.712;2024-01-06T02:50:03;22.17;;;13.32;;
55067;SDS011;40965;52.368;9.712;2024-01-06T02:52:30;18.67;;;11.45;;
55067;SDS011;40965;52.368;9.712;2024-01-06T02:54:57;18.88;;;11.02;;
55067;SDS011;40965;52.368;9.712;2024-01-06T02:57:24;22.25;;;12.25;;
55067;SDS011;40965;52.368;9.712;2024-01-06T02:59:52;22.02;;;12.05;;
55067;SDS011;40965;52.368;9.712;2024-01-06T03:02:19;22.23;;;11.77;;
55067;SDS011;40965;52.368;9.712;2024-01-06T03:04:45;21.52;;;11.65;;
55067;SDS011;40965;52.368;9.712;2024-01-06T03:07:12;21.45;;;12.00;;
55067;SDS011;40965;52.368;9.712;2024-01-06T03:09:38;18.27;;;11.38;;
55067;SDS011;40965;52.368;9.712;2024-01-06T03:12:08;24.05;;;12.27;;
55067;SDS011;40965;52.368;9.712;2024-01-06T03:14:35;21.23;;;12.25;;
55067;SDS011;40965;52.368;9.712;2024-01-06T03:17:01;18.90;;;10.52;;
55067;SDS011;40965;52.368;9.712;2024-01-06T03:19:29;19.90;;;11.88;;
55067;SDS011;40965;52.368;9.712;2024-01-06T03:21:56;24.52;;;12.38;;
55067;SDS011;40965;52.368;9.712;2024-01-06T03:24:23;19.92;;;11.38;;
55067;SDS011;40965;52.368;9.712;2024-01-06T03:26:51;20.50;;;12.02;;
55067;SDS011;40965;52.368;9.712;2024-01-06T03:29:17;19.17;;;11.48;;
55067;SDS011;40965;52.368;9.712;2024-01-06T03:31:44;19.15;;;11.50;;
55067;SDS011;40965;52.368;9.712;2024-01-06T03:34:11;19.88;;;11.52;;
55067;SDS011;40965;52.368;9.712;2024-01-06T03:36:38;18.88;;;12.00;;
55067;SDS011;40965;52.368;9.712;2024-01-06T03:39:06;19.73;;;12.10;;
55067;SDS011;40965;52.368;9.712;2024-01-06T03:41:34;19.63;;;10.60;;
55067;SDS011;40965;52.368;9.712;2024-01-06T03:44:01;19.35;;;11.65;;
55067;SDS011;40965;52.368;9.712;2024-01-06T03:46:32;21.83;;;11.60;;
55067;SDS011;40965;52.368;9.712;2024-01-06T03:49:00;24.60;;;12.45;;
55067;SDS011;40965;52.368;9.712;2024-01-06T03:51:30;21.08;;;10.70;;
55067;SDS011;40965;52.368;9.712;2024-01-06T03:53:56;26.35;;;12.30;;
55067;SDS011;40965;52.368;9.712;2024-01-06T03:56:23;22.92;;;11.45;;
55067;SDS011;40965;52.368;9.712;2024-01-06T03:58:49;19.42;;;12.48;;
55067;SDS011;40965;52.368;9.712;2024-01-06T04:01:16;21.33;;;11.65;;
55067;SDS011;40965;52.368;9.712;2024-01-06T04:03:46;20.30;;;11.20;;
55067;SDS011;40965;52.368;9.712;2024-01-06T04:06:12;21.48;;;11.77;;
55067;SDS011;40965;52.368;9.712;2024-01-06T04:08:39;24.48;;;12.80;;
55067;SDS011;40965;52.368;9.712;2024-01-06T04:11:06;26.33;;;13.93;;
55067;SDS011;40965;52.368;9.712;2024-01-06T04:13:33;22.75;;;12.77;;
55067;SDS011;40965;52.368;9.712;2024-01-06T04:15:59;21.92;;;12.35;;
55067;SDS011;40965;52.368;9.712;2024-01-06T04:18:26;23.92;;;13.65;;
55067;SDS011;40965;52.368;9.712;2024-01-06T04:20:52;22.85;;;12.43;;
55067;SDS011;40965;52.368;9.712;2024-01-06T04:23:19;23.00;;;12.63;;
55067;SDS011;40965;52.368;9.712;2024-01-06T04:25:45;26.20;;;13.43;;
55067;SDS011;40965;52.368;9.712;2024-01-06T04:28:13;25.23;;;13.18;;
55067;SDS011;40965;52.368;9.712;2024-01-06T04:30:41;27.17;;;13.52;;
55067;SDS011;40965;52.368;9.712;2024-01-06T04:33:08;22.75;;;12.93;;
55067;SDS011;40965;52.368;9.712;2024-01-06T04:35:35;21.33;;;12.18;;
55067;SDS011;40965;52.368;9.712;2024-01-06T04:38:01;22.50;;;12.23;;
55067;SDS011;40965;52.368;9.712;2024-01-06T04:40:28;20.92;;;12.05;;
55067;SDS011;40965;52.368;9.712;2024-01-06T04:42:55;23.85;;;12.73;;
55067;SDS011;40965;52.368;9.712;2024-01-06T04:45:21;23.77;;;12.43;;
55067;SDS011;40965;52.368;9.712;2024-01-06T04:47:49;26.08;;;13.55;;
55067;SDS011;40965;52.368;9.712;2024-01-06T04:50:16;24.05;;;13.77;;
55067;SDS011;40965;52.368;9.712;2024-01-06T04:52:43;26.85;;;13.43;;
55067;SDS011;40965;52.368;9.712;2024-01-06T04:55:10;22.20;;;12.75;;
55067;SDS011;40965;52.368;9.712;2024-01-06T04:57:39;23.55;;;12.68;;
55067;SDS011;40965;52.368;9.712;2024-01-06T05:00:06;23.90;;;12.38;;
55067;SDS011;40965;52.368;9.712;2024-01-06T05:02:33;29.05;;;15.48;;
55067;SDS011;40965;52.368;9.712;2024-01-06T05:05:00;23.30;;;12.63;;
55067;SDS011;40965;52.368;9.712;2024-01-06T05:07:27;25.48;;;13.50;;
55067;SDS011;40965;52.368;9.712;2024-01-06T05:09:54;29.20;;;14.18;;
55067;SDS011;40965;52.368;9.712;2024-01-06T05:12:22;26.90;;;14.93;;
55067;SDS011;40965;52.368;9.712;2024-01-06T05:14:48;23.10;;;12.45;;
55067;SDS011;40965;52.368;9.712;2024-01-06T05:17:15;24.17;;;12.98;;
55067;SDS011;40965;52.368;9.712;2024-01-06T05:19:41;29.40;;;14.23;;
55067;SDS011;40965;52.368;9.712;2024-01-06T05:22:08;24.17;;;12.75;;
55067;SDS011;40965;52.368;9.712;2024-01-06T05:24:34;24.67;;;13.18;;
55067;SDS011;40965;52.368;9.712;2024-01-06T05:27:03;28.05;;;13.05;;
55067;SDS011;40965;52.368;9.712;2024-01-06T05:29:33;20.10;;;12.68;;
55067;SDS011;40965;52.368;9.712;2024-01-06T05:31:59;23.60;;;13.38;;
55067;SDS011;40965;52.368;9.712;2024-01-06T05:34:26;24.90;;;13.30;;
55067;SDS011;40965;52.368;9.712;2024-01-06T05:36:52;21.55;;;12.10;;
55067;SDS011;40965;52.368;9.712;2024-01-06T05:39:19;25.25;;;14.70;;
55067;SDS011;40965;52.368;9.712;2024-01-06T05:41:45;22.13;;;12.88;;
55067;SDS011;40965;52.368;9.712;2024-01-06T05:44:12;24.63;;;12.45;;
55067;SDS011;40965;52.368;9.712;2024-01-06T05:46:39;25.73;;;13.68;;
55067;SDS011;40965;52.368;9.712;2024-01-06T05:49:09;26.05;;;12.95;;
55067;SDS011;40965;52.368;9.712;2024-01-06T05:51:36;20.33;;;12.27;;
55067;SDS011;40965;52.368;9.712;2024-01-06T05:54:02;23.70;;;13.02;;
55067;SDS011;40965;52.368;9.712;2024-01-06T05:56:29;26.17;;;13.65;;
55067;SDS011;40965;52.368;9.712;2024-01-06T05:58:55;25.55;;;12.15;;
55067;SDS011;40965;52.368;9.712;2024-01-06T06:01:22;27.42;;;12.88;;
55067;SDS011;40965;52.368;9.712;2024-01-06T06:03:50;28.15;;;13.00;;
55067;SDS011;40965;52.368;9.712;2024-01-06T06:06:16;26.25;;;13.88;;
55067;SDS011;40965;52.368;9.712;2024-01-06T06:08:43;25.38;;;13.68;;
55067;SDS011;40965;52.368;9.712;2024-01-06T06:11:10;27.45;;;13.23;;
55067;SDS011;40965;52.368;9.712;2024-01-06T06:13:37;21.23;;;12.02;;
55067;SDS011;40965;52.368;9.712;2024-01-06T06:16:06;29.90;;;12.80;;
55067;SDS011;40965;52.368;9.712;2024-01-06T06:18:35;26.65;;;13.15;;
55067;SDS011;40965;52.368;9.712;2024-01-06T06:21:01;30.60;;;13.57;;
55067;SDS011;40965;52.368;9.712;2024-01-06T06:23:30;28.70;;;14.30;;
55067;SDS011;40965;52.368;9.712;2024-01-06T06:25:57;29.50;;;13.77;;
55067;SDS011;40965;52.368;9.712;2024-01-06T06:28:24;26.83;;;12.68;;
55067;SDS011;40965;52.368;9.712;2024-01-06T06:30:57;23.77;;;14.32;;
55067;SDS011;40965;52.368;9.712;2024-01-06T06:33:27;22.55;;;12.73;;
55067;SDS011;40965;52.368;9.712;2024-01-06T06:35:54;28.67;;;13.95;;
55067;SDS011;40965;52.368;9.712;2024-01-06T06:38:20;23.52;;;12.23;;
55067;SDS011;40965;52.368;9.712;2024-01-06T06:40:47;30.80;;;14.50;;
55067;SDS011;40965;52.368;9.712;2024-01-06T06:43:14;25.55;;;14.15;;
55067;SDS011;40965;52.368;9.712;2024-01-06T06:45:40;26.15;;;13.57;;
55067;SDS011;40965;52.368;9.712;2024-01-06T06:48:07;25.73;;;13.60;;
55067;SDS011;40965;52.368;9.712;2024-01-06T06:50:33;29.95;;;13.63;;
55067;SDS011;40965;52.368;9.712;2024-01-06T06:53:00;30.30;;;14.25;;
55067;SDS011;40965;52.368;9.712;2024-01-06T06:55:27;28.92;;;14.32;;
55067;SDS011;40965;52.368;9.712;2024-01-06T06:57:53;23.20;;;12.80;;
55067;SDS011;40965;52.368;9.712;2024-01-06T07:00:20;34.53;;;15.93;;
55067;SDS011;40965;52.368;9.712;2024-01-06T07:02:46;27.10;;;14.23;;
55067;SDS011;40965;52.368;9.712;2024-01-06T07:05:13;25.48;;;12.23;;
55067;SDS011;40965;52.368;9.712;2024-01-06T07:07:40;30.42;;;14.07;;
55067;SDS011;40965;52.368;9.712;2024-01-06T07:10:08;31.40;;;15.18;;
55067;SDS011;40965;52.368;9.712;2024-01-06T07:12:37;30.77;;;14.90;;
55067;SDS011;40965;52.368;9.712;2024-01-06T07:15:04;25.27;;;13.23;;
55067;SDS011;40965;52.368;9.712;2024-01-06T07:17:31;30.20;;;14.05;;
55067;SDS011;40965;52.368;9.712;2024-01-06T07:19:57;29.95;;;14.77;;
55067;SDS011;40965;52.368;9.712;2024-01-06T07:22:24;32.03;;;14.73;;
55067;SDS011;40965;52.368;9.712;2024-01-06T07:24:51;29.67;;;14.35;;
55067;SDS011;40965;52.368;9.712;2024-01-06T07:27:17;33.72;;;15.27;;
55067;SDS011;40965;52.368;9.712;2024-01-06T07:29:44;31.35;;;15.25;;
55067;SDS011;40965;52.368;9.712;2024-01-06T07:32:16;32.55;;;15.38;;
55067;SDS011;40965;52.368;9.712;2024-01-06T07:34:43;29.23;;;15.80;;
55067;SDS011;40965;52.368;9.712;2024-01-06T07:37:09;30.73;;;16.17;;
55067;SDS011;40965;52.368;9.712;2024-01-06T07:39:36;28.92;;;16.08;;
55067;SDS011;40965;52.368;9.712;2024-01-06T07:42:03;30.90;;;15.20;;
55067;SDS011;40965;52.368;9.712;2024-01-06T07:44:30;32.80;;;14.70;;
55067;SDS011;40965;52.368;9.712;2024-01-06T07:46:56;34.78;;;17.38;;
55067;SDS011;40965;52.368;9.712;2024-01-06T07:49:23;29.88;;;14.35;;
55067;SDS011;40965;52.368;9.712;2024-01-06T07:51:49;30.77;;;13.77;;
55067;SDS011;40965;52.368;9.712;2024-01-06T07:54:16;30.15;;;17.05;;
55067;SDS011;40965;52.368;9.712;2024-01-06T07:56:45;30.85;;;16.83;;
55067;SDS011;40965;52.368;9.712;2024-01-06T07:59:11;33.17;;;16.30;;
55067;SDS011;40965;52.368;9.712;2024-01-06T08:01:41;35.42;;;15.95;;
55067;SDS011;40965;52.368;9.712;2024-01-06T08:04:08;33.63;;;16.52;;
55067;SDS011;40965;52.368;9.712;2024-01-06T08:06:35;35.42;;;16.98;;
55067;SDS011;40965;52.368;9.712;2024-01-06T08:09:01;33.97;;;17.27;;
55067;SDS011;40965;52.368;9.712;2024-01-06T08:11:29;33.00;;;16.27;;
55067;SDS011;40965;52.368;9.712;2024-01-06T08:13:55;38.20;;;16.25;;
55067;SDS011;40965;52.368;9.712;2024-01-06T08:16:22;31.73;;;16.88;;
55067;SDS011;40965;52.368;9.712;2024-01-06T08:18:48;39.75;;;18.63;;
55067;SDS011;40965;52.368;9.712;2024-01-06T08:21:15;36.78;;;15.88;;
55067;SDS011;40965;52.368;9.712;2024-01-06T08:23:41;36.83;;;17.00;;
55067;SDS011;40965;52.368;9.712;2024-01-06T08:26:08;32.88;;;14.77;;
55067;SDS011;40965;52.368;9.712;2024-01-06T08:28:34;35.38;;;18.27;;
55067;SDS011;40965;52.368;9.712;2024-01-06T08:31:01;35.78;;;16.88;;
55067;SDS011;40965;52.368;9.712;2024-01-06T08:33:27;32.35;;;16.08;;
55067;SDS011;40965;52.368;9.712;2024-01-06T08:35:54;33.30;;;16.00;;
55067;SDS011;40965;52.368;9.712;2024-01-06T08:38:21;33.25;;;17.08;;
55067;SDS011;40965;52.368;9.712;2024-01-06T08:40:50;34.08;;;15.75;;
55067;SDS011;40965;52.368;9.712;2024-01-06T08:43:18;32.55;;;15.90;;
55067;SDS011;40965;52.368;9.712;2024-01-06T08:45:45;30.73;;;15.80;;
55067;SDS011;40965;52.368;9.712;2024-01-06T08:48:11;37.60;;;16.10;;
55067;SDS011;40965;52.368;9.712;2024-01-06T08:50:39;35.08;;;16.70;;
55067;SDS011;40965;52.368;9.712;2024-01-06T08:53:05;29.40;;;15.20;;
55067;SDS011;40965;52.368;9.712;2024-01-06T08:55:32;37.42;;;17.13;;
55067;SDS011;40965;52.368;9.712;2024-01-06T08:57:58;31.05;;;16.08;;
55067;SDS011;40965;52.368;9.712;2024-01-06T09:00:25;29.88;;;14.85;;
55067;SDS011;40965;52.368;9.712;2024-01-06T09:02:52;29.88;;;15.63;;
55067;SDS011;40965;52.368;9.712;2024-01-06T09:05:19;34.33;;;15.45;;
55067;SDS011;40965;52.368;9.712;2024-01-06T09:07:45;35.08;;;15.73;;
55067;SDS011;40965;52.368;9.712;2024-01-06T09:10:15;32.38;;;14.65;;
55067;SDS011;40965;52.368;9.712;2024-01-06T09:12:44;34.72;;;15.10;;
55067;SDS011;40965;52.368;9.712;2024-01-06T09:15:10;35.90;;;14.93;;
55067;SDS011;40965;52.368;9.712;2024-01-06T09:17:37;29.30;;;12.95;;
55067;SDS011;40965;52.368;9.712;2024-01-06T09:20:03;26.58;;;13.70;;
55067;SDS011;40965;52.368;9.712;2024-01-06T09:22:31;28.20;;;15.20;;
55067;SDS011;40965;52.368;9.712;2024-01-06T09:24:57;32.92;;;13.43;;
55067;SDS011;40965;52.368;9.712;2024-01-06T09:27:24;26.42;;;12.57;;
55067;SDS011;40965;52.368;9.712;2024-01-06T09:29:51;31.45;;;14.85;;
55067;SDS011;40965;52.368;9.712;2024-01-06T09:32:17;25.92;;;12.68;;
55067;SDS011;40965;52.368;9.712;2024-01-06T09:34:44;26.27;;;12.68;;
55067;SDS011;40965;52.368;9.712;2024-01-06T09:37:10;24.17;;;13.98;;
55067;SDS011;40965;52.368;9.712;2024-01-06T09:39:37;24.73;;;13.13;;
55067;SDS011;40965;52.368;9.712;2024-01-06T09:42:04;23.73;;;11.57;;
55067;SDS011;40965;52.368;9.712;2024-01-06T09:44:32;24.45;;;11.75;;
55067;SDS011;40965;52.368;9.712;2024-01-06T09:47:00;22.40;;;11.77;;
55067;SDS011;40965;52.368;9.712;2024-01-06T09:49:28;27.33;;;13.68;;
55067;SDS011;40965;52.368;9.712;2024-01-06T09:51:59;24.35;;;12.27;;
55067;SDS011;40965;52.368;9.712;2024-01-06T09:54:28;30.60;;;12.60;;
55067;SDS011;40965;52.368;9.712;2024-01-06T09:56:59;24.85;;;13.43;;
55067;SDS011;40965;52.368;9.712;2024-01-06T09:59:29;22.90;;;11.68;;
55067;SDS011;40965;52.368;9.712;2024-01-06T10:02:02;23.20;;;11.73;;
55067;SDS011;40965;52.368;9.712;2024-01-06T10:04:30;20.52;;;10.25;;
55067;SDS011;40965;52.368;9.712;2024-01-06T10:06:57;19.35;;;10.30;;
55067;SDS011;40965;52.368;9.712;2024-01-06T10:09:27;21.60;;;11.93;;
55067;SDS011;40965;52.368;9.712;2024-01-06T10:11:55;23.55;;;11.55;;
55067;SDS011;40965;52.368;9.712;2024-01-06T10:14:23;18.13;;;10.45;;
55067;SDS011;40965;52.368;9.712;2024-01-06T10:16:53;19.95;;;10.32;;
55067;SDS011;40965;52.368;9.712;2024-01-06T10:19:20;22.52;;;11.35;;
55067;SDS011;40965;52.368;9.712;2024-01-06T10:21:47;17.08;;;9.25;;
55067;SDS011;40965;52.368;9.712;2024-01-06T10:24:14;22.08;;;9.90;;
55067;SDS011;40965;52.368;9.712;2024-01-06T10:26:41;20.65;;;11.02;;
55067;SDS011;40965;52.368;9.712;2024-01-06T10:29:07;20.08;;;10.43;;
55067;SDS011;40965;52.368;9.712;2024-01-06T10:31:33;20.83;;;10.05;;
55067;SDS011;40965;52.368;9.712;2024-01-06T10:34:00;19.30;;;9.38;;
55067;SDS011;40965;52.368;9.712;2024-01-06T10:36:29;20.08;;;10.07;;
55067;SDS011;40965;52.368;9.712;2024-01-06T10:38:56;20.80;;;11.13;;
55067;SDS011;40965;52.368;9.712;2024-01-06T10:41:23;19.05;;;10.30;;
55067;SDS011;40965;52.368;9.712;2024-01-06T10:43:50;18.92;;;11.15;;
55067;SDS011;40965;52.368;9.712;2024-01-06T10:46:20;16.42;;;9.75;;
55067;SDS011;40965;52.368;9.712;2024-01-06T10:48:50;17.85;;;10.60;;
55067;SDS011;40965;52.368;9.712;2024-01-06T10:51:21;18.33;;;10.45;;
55067;SDS011;40965;52.368;9.712;2024-01-06T10:53:49;16.45;;;9.57;;
55067;SDS011;40965;52.368;9.712;2024-01-06T10:56:16;19.08;;;9.95;;
55067;SDS011;40965;52.368;9.712;2024-01-06T10:58:46;21.30;;;11.20;;
55067;SDS011;40965;52.368;9.712;2024-01-06T11:01:19;21.10;;;10.85;;
55067;SDS011;40965;52.368;9.712;2024-01-06T11:03:49;22.17;;;10.82;;
55067;SDS011;40965;52.368;9.712;2024-01-06T11:06:17;21.45;;;10.75;;
55067;SDS011;40965;52.368;9.712;2024-01-06T11:09:02;25.42;;;12.52;;
55067;SDS011;40965;52.368;9.712;2024-01-06T11:11:37;20.38;;;11.27;;
55067;SDS011;40965;52.368;9.712;2024-01-06T11:14:24;21.67;;;12.35;;
55067;SDS011;40965;52.368;9.712;2024-01-06T11:16:53;26.98;;;12.07;;
55067;SDS011;40965;52.368;9.712;2024-01-06T11:24:50;23.92;;;12.18;;
55067;SDS011;40965;52.368;9.712;2024-01-06T11:27:22;22.50;;;11.98;;
55067;SDS011;40965;52.368;9.712;2024-01-06T11:29:54;24.90;;;12.32;;
55067;SDS011;40965;52.368;9.712;2024-01-06T11:32:27;19.05;;;11.43;;
55067;SDS011;40965;52.368;9.712;2024-01-06T11:35:16;23.58;;;13.45;;
55067;SDS011;40965;52.368;9.712;2024-01-06T11:40:10;21.17;;;10.68;;
55067;SDS011;40965;52.368;9.712;2024-01-06T11:42:58;20.48;;;10.57;;
55067;SDS011;40965;52.368;9.712;2024-01-06T11:45:39;20.38;;;10.15;;
55067;SDS011;40965;52.368;9.712;2024-01-06T11:48:11;18.85;;;10.50;;
55067;SDS011;40965;52.368;9.712;2024-01-06T11:50:40;18.60;;;9.77;;
55067;SDS011;40965;52.368;9.712;2024-01-06T11:53:10;18.40;;;9.85;;
55067;SDS011;40965;52.368;9.712;2024-01-06T11:55:38;19.67;;;10.82;;
55067;SDS011;40965;52.368;9.712;2024-01-06T11:58:07;20.10;;;10.93;;
55067;SDS011;40965;52.368;9.712;2024-01-06T12:00:34;22.75;;;11.18;;
55067;SDS011;40965;52.368;9.712;2024-01-06T12:03:04;17.13;;;9.63;;
55067;SDS011;40965;52.368;9.712;2024-01-06T12:05:33;20.60;;;10.40;;
55067;SDS011;40965;52.368;9.712;2024-01-06T12:08:02;15.93;;;9.75;;
55067;SDS011;40965;52.368;9.712;2024-01-06T12:10:31;22.17;;;11.75;;
55067;SDS011;40965;52.368;9.712;2024-01-06T12:13:05;25.05;;;11.48;;
55067;SDS011;40965;52.368;9.712;2024-01-06T12:15:34;19.45;;;10.70;;
55067;SDS011;40965;52.368;9.712;2024-01-06T12:18:02;21.42;;;11.70;;
55067;SDS011;40965;52.368;9.712;2024-01-06T12:20:30;18.42;;;10.65;;
55067;SDS011;40965;52.368;9.712;2024-01-06T12:22:57;20.33;;;10.25;;
55067;SDS011;40965;52.368;9.712;2024-01-06T12:25:30;21.67;;;10.00;;
55067;SDS011;40965;52.368;9.712;2024-01-06T12:28:01;22.75;;;10.85;;
55067;SDS011;40965;52.368;9.712;2024-01-06T12:30:33;24.23;;;11.25;;
55067;SDS011;40965;52.368;9.712;2024-01-06T12:33:02;26.17;;;11.93;;
55067;SDS011;40965;52.368;9.712;2024-01-06T12:35:30;19.42;;;11.65;;
55067;SDS011;40965;52.368;9.712;2024-01-06T12:37:56;18.58;;;9.95;;
55067;SDS011;40965;52.368;9.712;2024-01-06T12:40:26;22.63;;;11.82;;
55067;SDS011;40965;52.368;9.712;2024-01-06T12:43:03;24.52;;;12.77;;
55067;SDS011;40965;52.368;9.712;2024-01-06T12:45:33;22.58;;;13.10;;
55067;SDS011;40965;52.368;9.712;2024-01-06T12:48:04;25.90;;;13.02;;
55067;SDS011;40965;52.368;9.712;2024-01-06T12:50:31;22.10;;;11.23;;
55067;SDS011;40965;52.368;9.712;2024-01-06T12:52:58;23.77;;;12.25;;
55067;SDS011;40965;52.368;9.712;2024-01-06T12:55:30;24.40;;;11.90;;
55067;SDS011;40965;52.368;9.712;2024-01-06T12:57:58;27.20;;;13.00;;
55067;SDS011;40965;52.368;9.712;2024-01-06T13:00:28;23.05;;;13.02;;
55067;SDS011;40965;52.368;9.712;2024-01-06T13:02:55;19.73;;;12.38;;
55067;SDS011;40965;52.368;9.712;2024-01-06T13:05:22;21.02;;;10.43;;
55067;SDS011;40965;52.368;9.712;2024-01-06T13:07:52;22.25;;;12.75;;
55067;SDS011;40965;52.368;9.712;2024-01-06T13:10:19;23.73;;;11.77;;
55067;SDS011;40965;52.368;9.712;2024-01-06T13:12:45;24.83;;;12.00;;
55067;SDS011;40965;52.368;9.712;2024-01-06T13:15:12;21.02;;;10.57;;
55067;SDS011;40965;52.368;9.712;2024-01-06T13:17:39;25.80;;;13.98;;
55067;SDS011;40965;52.368;9.712;2024-01-06T13:20:05;23.70;;;10.98;;
55067;SDS011;40965;52.368;9.712;2024-01-06T13:22:41;25.00;;;11.23;;
55067;SDS011;40965;52.368;9.712;2024-01-06T13:25:08;24.77;;;10.95;;
55067;SDS011;40965;52.368;9.712;2024-01-06T13:27:35;19.63;;;11.77;;
55067;SDS011;40965;52.368;9.712;2024-01-06T13:30:01;24.95;;;13.57;;
55067;SDS011;40965;52.368;9.712;2024-01-06T13:32:28;28.67;;;12.85;;
55067;SDS011;40965;52.368;9.712;2024-01-06T13:34:55;27.73;;;12.23;;
55067;SDS011;40965;52.368;9.712;2024-01-06T13:39:57;30.63;;;15.57;;
55067;SDS011;40965;52.368;9.712;2024-01-06T13:42:24;26.27;;;11.73;;
55067;SDS011;40965;52.368;9.712;2024-01-06T13:44:52;32.13;;;15.32;;
55067;SDS011;40965;52.368;9.712;2024-01-06T13:47:19;32.00;;;14.73;;
55067;SDS011;40965;52.368;9.712;2024-01-06T13:49:49;28.00;;;12.95;;
55067;SDS011;40965;52.368;9.712;2024-01-06T13:52:15;27.67;;;12.95;;
55067;SDS011;40965;52.368;9.712;2024-01-06T13:54:45;26.50;;;11.75;;
55067;SDS011;40965;52.368;9.712;2024-01-06T13:57:17;26.65;;;12.10;;
55067;SDS011;40965;52.368;9.712;2024-01-06T13:59:45;28.17;;;12.70;;
55067;SDS011;40965;52.368;9.712;2024-01-06T14:02:16;30.10;;;13.25;;
55067;SDS011;40965;52.368;9.712;2024-01-06T14:04:45;27.33;;;14.13;;
55067;SDS011;40965;52.368;9.712;2024-01-06T14:07:14;26.33;;;12.13;;
55067;SDS011;40965;52.368;9.712;2024-01-06T14:09:48;29.55;;;13.48;;
55067;SDS011;40965;52.368;9.712;2024-01-06T14:12:15;27.52;;;13.55;;
55067;SDS011;40965;52.368;9.712;2024-01-06T14:14:42;20.13;;;11.88;;
55067;SDS011;40965;52.368;9.712;2024-01-06T14:17:08;27.90;;;12.40;;
55067;SDS011;40965;52.368;9.712;2024-01-06T14:19:35;22.33;;;11.75;;
55067;SDS011;40965;52.368;9.712;2024-01-06T14:22:02;24.45;;;12.68;;
55067;SDS011;40965;52.368;9.712;2024-01-06T14:24:32;25.83;;;11.10;;
55067;SDS011;40965;52.368;9.712;2024-01-06T14:27:01;25.40;;;12.50;;
55067;SDS011;40965;52.368;9.712;2024-01-06T14:29:28;27.02;;;12.35;;
55067;SDS011;40965;52.368;9.712;2024-01-06T14:31:55;22.88;;;12.35;;
55067;SDS011;40965;52.368;9.712;2024-01-06T14:34:25;30.25;;;12.63;;